Klaipeda, Lithuania

10:59 PM EET Novembris 21, 2017 (GMT +0200)
Sausio 15-osios gatvė | | Change Station

Elev 22 ft 55.70 °N, 21.14 °E | Updated 12 minutes ago

Apmācies
Apmācies
35.1 °F
Feels Like 35 °F
Z
1.2
Vējš Mainîgs Vējš no Rietumu
Gusts 2.5 jūdzes stundā

Šodien
Augsts -- | Zems -- °F
--% Iespējami nokrišņi
Vakardiena
Augsts -- | Zems -- °F
Precip. -- collas
Spiediens 29.83 collas
Redzamība 6.2 jūdzes
Mākoņi Reti mākoņi 800 ft
Pārsvarā mākoņains 1500 ft
Pārsvarā mākoņains 2100 ft
Auksts vējš 35 °F
Rasas punkts 35 °F
Mitrums 100%
Nokrišņi 0.00 collas
Sniega biezums Not available.
8:22 AM 4:19 PM
Augošs sirpveida mēness, 10% visible
METAR EVLA 212050Z AUTO 21003KT 180V240 9999 RA SCT008/// BKN015/// BKN021/// 02/01 Q1010
Spiediens 29.83 collas
Redzamība 6.2 jūdzes
Mākoņi Reti mākoņi 800 ft
Pārsvarā mākoņains 1500 ft
Pārsvarā mākoņains 2100 ft
Auksts vējš 35 °F
Rasas punkts 35 °F
Mitrums 100%
Nokrišņi 0.00 collas
Sniega biezums Not available.
8:22 AM 4:19 PM
Augošs sirpveida mēness, 10% visible
METAR EVLA 212050Z AUTO 21003KT 180V240 9999 RA SCT008/// BKN015/// BKN021/// 02/01 Q1010

Get Severe Weather Alerts

Thanks for signing up!

Be on the lookout for a verification email in your inbox.

You'll start receiving the daily forecast at 6 AM.

×

10-Day Weather Forecast

×

Almanac

Astronomija

Nov. 21, 2017 Lēkts Riets
Faktiskais laiks
Civilā krēsla
Jūras krēsla
Astronomiskā krēsla
Mēness
Redzamās gaismas garums
Dienas garums
Tomorrow will be .
, % of the Moon is Illuminated

Šodienas ekstrēmi

Country Highs Country Lows

Community

WunderPhotos

Category 6

Welcome to Category 6. This is the collective home for Weather Underground's featured writeups by Dr. Jeff Masters (right), Bob Henson (left), Chris Burt, and other regular contributors.

Nearby

Gaisa kvalitāte

  Gaisa kvalitāte Gaisa kvalitātes indekss Piesārņotājs
Not available.

Sniega biezums

Station Depth Pacelšana

Zemestrīču aktivitātes

Pilsēta Distance Mag. Time & Date
Minimum magnitude displayed is 2.5.

Piekrastes ūdens temperatūra

Vieta Temperatūra

Stations

Tuvākās meteoroloģiskās stacijas

Stacijas atrašanās vieta Temp. Auksts vējš Rasas punkts Mitrums Vējš Precip. Elev Atjaunots Tips